sensor_id;sensor_type;location;lat;lon;timestamp;temperature;humidity
52869;DHT22;39100;53.480;6.158;2023-02-13T00:01:31;7.10;99.90
52869;DHT22;39100;53.480;6.158;2023-02-13T00:03:56;7.10;99.90
52869;DHT22;39100;53.480;6.158;2023-02-13T00:06:22;7.10;99.90
52869;DHT22;39100;53.480;6.158;2023-02-13T00:08:47;7.10;99.90
52869;DHT22;39100;53.480;6.158;2023-02-13T00:11:13;7.10;99.90
52869;DHT22;39100;53.480;6.158;2023-02-13T00:13:39;7.10;99.90
52869;DHT22;39100;53.480;6.158;2023-02-13T00:16:04;7.10;99.90
52869;DHT22;39100;53.480;6.158;2023-02-13T00:18:34;7.10;99.90
52869;DHT22;39100;53.480;6.158;2023-02-13T00:23:29;7.20;99.90
52869;DHT22;39100;53.480;6.158;2023-02-13T00:25:55;7.20;99.90
52869;DHT22;39100;53.480;6.158;2023-02-13T00:28:20;7.10;99.90
52869;DHT22;39100;53.480;6.158;2023-02-13T00:30:46;7.10;99.90
52869;DHT22;39100;53.480;6.158;2023-02-13T00:33:11;7.10;99.90
52869;DHT22;39100;53.480;6.158;2023-02-13T00:35:37;7.10;99.90
52869;DHT22;39100;53.480;6.158;2023-02-13T00:38:02;7.20;99.90
52869;DHT22;39100;53.480;6.158;2023-02-13T00:40:28;7.10;99.90
52869;DHT22;39100;53.480;6.158;2023-02-13T00:42:53;7.10;99.90
52869;DHT22;39100;53.480;6.158;2023-02-13T00:45:19;7.10;99.90
52869;DHT22;39100;53.480;6.158;2023-02-13T00:47:44;7.10;99.90
52869;DHT22;39100;53.480;6.158;2023-02-13T00:50:10;7.20;99.90
52869;DHT22;39100;53.480;6.158;2023-02-13T00:52:36;7.10;99.90
52869;DHT22;39100;53.480;6.158;2023-02-13T00:55:01;7.20;99.90
52869;DHT22;39100;53.480;6.158;2023-02-13T00:57:27;7.20;99.90
52869;DHT22;39100;53.480;6.158;2023-02-13T00:59:53;7.20;99.90
52869;DHT22;39100;53.480;6.158;2023-02-13T01:02:19;7.10;99.90
52869;DHT22;39100;53.480;6.158;2023-02-13T01:04:44;7.10;99.90
52869;DHT22;39100;53.480;6.158;2023-02-13T01:07:10;7.10;99.90
52869;DHT22;39100;53.480;6.158;2023-02-13T01:09:35;7.10;99.90
52869;DHT22;39100;53.480;6.158;2023-02-13T01:12:01;7.10;99.90
52869;DHT22;39100;53.480;6.158;2023-02-13T01:14:27;7.10;99.90
52869;DHT22;39100;53.480;6.158;2023-02-13T01:16:52;7.20;99.90
52869;DHT22;39100;53.480;6.158;2023-02-13T01:19:18;7.20;99.90
52869;DHT22;39100;53.480;6.158;2023-02-13T01:21:43;7.20;99.90
52869;DHT22;39100;53.480;6.158;2023-02-13T01:24:09;7.10;99.90
52869;DHT22;39100;53.480;6.158;2023-02-13T01:26:35;7.20;99.90
52869;DHT22;39100;53.480;6.158;2023-02-13T01:29:00;7.20;99.90
52869;DHT22;39100;53.480;6.158;2023-02-13T01:31:26;7.10;99.90
52869;DHT22;39100;53.480;6.158;2023-02-13T01:33:55;7.10;99.90
52869;DHT22;39100;53.480;6.158;2023-02-13T01:36:21;7.10;99.90
52869;DHT22;39100;53.480;6.158;2023-02-13T01:38:47;7.10;99.90
52869;DHT22;39100;53.480;6.158;2023-02-13T01:41:13;7.10;99.90
52869;DHT22;39100;53.480;6.158;2023-02-13T01:46:37;7.10;99.90
52869;DHT22;39100;53.480;6.158;2023-02-13T01:49:17;7.10;99.90
52869;DHT22;39100;53.480;6.158;2023-02-13T01:51:44;7.10;99.90
52869;DHT22;39100;53.480;6.158;2023-02-13T01:54:17;7.10;99.90
52869;DHT22;39100;53.480;6.158;2023-02-13T01:56:47;7.10;99.90
52869;DHT22;39100;53.480;6.158;2023-02-13T01:59:17;7.10;99.90
52869;DHT22;39100;53.480;6.158;2023-02-13T02:01:44;7.10;99.90
52869;DHT22;39100;53.480;6.158;2023-02-13T02:04:18;7.10;99.90
52869;DHT22;39100;53.480;6.158;2023-02-13T02:06:50;7.10;99.90
52869;DHT22;39100;53.480;6.158;2023-02-13T02:09:20;7.10;99.90
52869;DHT22;39100;53.480;6.158;2023-02-13T02:11:59;7.10;99.90
52869;DHT22;39100;53.480;6.158;2023-02-13T02:14:26;7.10;99.90
52869;DHT22;39100;53.480;6.158;2023-02-13T02:16:52;7.10;99.90
52869;DHT22;39100;53.480;6.158;2023-02-13T02:19:40;7.10;99.90
52869;DHT22;39100;53.480;6.158;2023-02-13T02:22:32;7.10;99.90
52869;DHT22;39100;53.480;6.158;2023-02-13T02:28:19;7.20;99.90
52869;DHT22;39100;53.480;6.158;2023-02-13T02:31:14;7.20;99.90
52869;DHT22;39100;53.480;6.158;2023-02-13T02:34:18;7.10;99.90
52869;DHT22;39100;53.480;6.158;2023-02-13T02:37:02;7.20;99.90
52869;DHT22;39100;53.480;6.158;2023-02-13T02:48:30;7.20;99.90
52869;DHT22;39100;53.480;6.158;2023-02-13T02:51:25;7.10;99.90
52869;DHT22;39100;53.480;6.158;2023-02-13T02:54:07;7.10;99.90
52869;DHT22;39100;53.480;6.158;2023-02-13T02:56:58;7.10;99.90
52869;DHT22;39100;53.480;6.158;2023-02-13T02:59:27;7.10;99.90
52869;DHT22;39100;53.480;6.158;2023-02-13T03:02:14;7.10;99.90
52869;DHT22;39100;53.480;6.158;2023-02-13T03:05:00;7.10;99.90
52869;DHT22;39100;53.480;6.158;2023-02-13T03:07:45;7.10;99.90
52869;DHT22;39100;53.480;6.158;2023-02-13T03:10:26;7.10;99.90
52869;DHT22;39100;53.480;6.158;2023-02-13T03:13:38;7.10;99.90
52869;DHT22;39100;53.480;6.158;2023-02-13T03:16:09;7.10;99.90
52869;DHT22;39100;53.480;6.158;2023-02-13T03:18:55;7.10;99.90
52869;DHT22;39100;53.480;6.158;2023-02-13T03:22:05;7.10;99.90
52869;DHT22;39100;53.480;6.158;2023-02-13T03:25:10;7.10;99.90
52869;DHT22;39100;53.480;6.158;2023-02-13T03:27:57;7.10;99.90
52869;DHT22;39100;53.480;6.158;2023-02-13T03:34:07;7.10;99.90
52869;DHT22;39100;53.480;6.158;2023-02-13T03:39:55;7.20;99.90
52869;DHT22;39100;53.480;6.158;2023-02-13T03:45:03;7.20;99.90
52869;DHT22;39100;53.480;6.158;2023-02-13T03:47:56;7.10;99.90
52869;DHT22;39100;53.480;6.158;2023-02-13T03:50:24;7.20;99.90
52869;DHT22;39100;53.480;6.158;2023-02-13T03:52:59;7.20;99.90
52869;DHT22;39100;53.480;6.158;2023-02-13T03:55:30;7.10;99.90
52869;DHT22;39100;53.480;6.158;2023-02-13T03:58:22;7.20;99.90
52869;DHT22;39100;53.480;6.158;2023-02-13T04:01:08;7.10;99.90
52869;DHT22;39100;53.480;6.158;2023-02-13T04:03:47;7.10;99.90
52869;DHT22;39100;53.480;6.158;2023-02-13T04:06:20;7.10;99.90
52869;DHT22;39100;53.480;6.158;2023-02-13T04:08:48;7.10;99.90
52869;DHT22;39100;53.480;6.158;2023-02-13T04:13:58;7.10;99.90
52869;DHT22;39100;53.480;6.158;2023-02-13T04:16:40;7.10;99.90
52869;DHT22;39100;53.480;6.158;2023-02-13T04:19:08;7.10;99.90
52869;DHT22;39100;53.480;6.158;2023-02-13T04:21:36;7.10;99.90
52869;DHT22;39100;53.480;6.158;2023-02-13T04:24:02;7.10;99.90
52869;DHT22;39100;53.480;6.158;2023-02-13T04:26:36;7.10;99.90
52869;DHT22;39100;53.480;6.158;2023-02-13T04:29:02;7.10;99.90
52869;DHT22;39100;53.480;6.158;2023-02-13T04:31:28;7.10;99.90
52869;DHT22;39100;53.480;6.158;2023-02-13T04:33:53;7.10;99.90
52869;DHT22;39100;53.480;6.158;2023-02-13T04:36:19;7.10;99.90
52869;DHT22;39100;53.480;6.158;2023-02-13T04:38:44;7.10;99.90
52869;DHT22;39100;53.480;6.158;2023-02-13T04:41:10;7.10;99.90
52869;DHT22;39100;53.480;6.158;2023-02-13T04:43:36;7.10;99.90
52869;DHT22;39100;53.480;6.158;2023-02-13T04:46:02;7.10;99.90
52869;DHT22;39100;53.480;6.158;2023-02-13T04:48:27;7.10;99.90
52869;DHT22;39100;53.480;6.158;2023-02-13T04:50:53;7.10;99.90
52869;DHT22;39100;53.480;6.158;2023-02-13T04:53:19;7.10;99.90
52869;DHT22;39100;53.480;6.158;2023-02-13T04:55:44;7.10;99.90
52869;DHT22;39100;53.480;6.158;2023-02-13T04:58:10;7.10;99.90
52869;DHT22;39100;53.480;6.158;2023-02-13T05:00:36;7.10;99.90
52869;DHT22;39100;53.480;6.158;2023-02-13T05:03:06;7.10;99.90
52869;DHT22;39100;53.480;6.158;2023-02-13T05:05:33;7.10;99.90
52869;DHT22;39100;53.480;6.158;2023-02-13T05:07:59;7.10;99.90
52869;DHT22;39100;53.480;6.158;2023-02-13T05:10:25;7.10;99.90
52869;DHT22;39100;53.480;6.158;2023-02-13T05:12:50;7.10;99.90
52869;DHT22;39100;53.480;6.158;2023-02-13T05:15:16;7.10;99.90
52869;DHT22;39100;53.480;6.158;2023-02-13T05:17:45;7.20;99.90
52869;DHT22;39100;53.480;6.158;2023-02-13T05:20:12;7.10;99.90
52869;DHT22;39100;53.480;6.158;2023-02-13T05:22:50;7.20;99.90
52869;DHT22;39100;53.480;6.158;2023-02-13T05:25:35;7.10;99.90
52869;DHT22;39100;53.480;6.158;2023-02-13T05:28:01;7.10;99.90
52869;DHT22;39100;53.480;6.158;2023-02-13T05:30:27;7.10;99.90
52869;DHT22;39100;53.480;6.158;2023-02-13T05:32:52;7.10;99.90
52869;DHT22;39100;53.480;6.158;2023-02-13T05:35:20;7.20;99.90
52869;DHT22;39100;53.480;6.158;2023-02-13T05:37:46;7.20;99.90
52869;DHT22;39100;53.480;6.158;2023-02-13T05:40:12;7.20;99.90
52869;DHT22;39100;53.480;6.158;2023-02-13T05:42:38;7.20;99.90
52869;DHT22;39100;53.480;6.158;2023-02-13T05:45:05;7.20;99.90
52869;DHT22;39100;53.480;6.158;2023-02-13T05:47:30;7.20;99.90
52869;DHT22;39100;53.480;6.158;2023-02-13T05:49:56;7.20;99.90
52869;DHT22;39100;53.480;6.158;2023-02-13T05:52:22;7.20;99.90
52869;DHT22;39100;53.480;6.158;2023-02-13T05:54:48;7.20;99.90
52869;DHT22;39100;53.480;6.158;2023-02-13T05:57:13;7.10;99.90
52869;DHT22;39100;53.480;6.158;2023-02-13T05:59:39;7.10;99.90
52869;DHT22;39100;53.480;6.158;2023-02-13T06:02:05;7.10;99.90
52869;DHT22;39100;53.480;6.158;2023-02-13T06:04:30;7.10;99.90
52869;DHT22;39100;53.480;6.158;2023-02-13T06:06:56;7.10;99.90
52869;DHT22;39100;53.480;6.158;2023-02-13T06:09:21;7.10;99.90
52869;DHT22;39100;53.480;6.158;2023-02-13T06:11:47;7.10;99.90
52869;DHT22;39100;53.480;6.158;2023-02-13T06:14:13;7.10;99.90
52869;DHT22;39100;53.480;6.158;2023-02-13T06:16:39;7.10;99.90
52869;DHT22;39100;53.480;6.158;2023-02-13T06:19:05;7.10;99.90
52869;DHT22;39100;53.480;6.158;2023-02-13T06:21:31;7.00;99.90
52869;DHT22;39100;53.480;6.158;2023-02-13T06:23:57;7.00;99.90
52869;DHT22;39100;53.480;6.158;2023-02-13T06:26:23;7.10;99.90
52869;DHT22;39100;53.480;6.158;2023-02-13T06:28:49;7.10;99.90
52869;DHT22;39100;53.480;6.158;2023-02-13T06:31:14;7.00;99.90
52869;DHT22;39100;53.480;6.158;2023-02-13T06:33:40;7.00;99.90
52869;DHT22;39100;53.480;6.158;2023-02-13T06:36:06;7.00;99.90
52869;DHT22;39100;53.480;6.158;2023-02-13T06:38:32;7.10;99.90
52869;DHT22;39100;53.480;6.158;2023-02-13T06:40:59;7.10;99.90
52869;DHT22;39100;53.480;6.158;2023-02-13T06:43:26;7.00;99.90
52869;DHT22;39100;53.480;6.158;2023-02-13T06:45:52;7.00;99.90
52869;DHT22;39100;53.480;6.158;2023-02-13T06:48:18;7.00;99.90
52869;DHT22;39100;53.480;6.158;2023-02-13T06:50:44;7.10;99.90
52869;DHT22;39100;53.480;6.158;2023-02-13T06:53:10;7.00;99.90
52869;DHT22;39100;53.480;6.158;2023-02-13T06:55:36;7.10;99.90
52869;DHT22;39100;53.480;6.158;2023-02-13T06:58:04;7.10;99.90
52869;DHT22;39100;53.480;6.158;2023-02-13T07:00:29;7.10;99.90
52869;DHT22;39100;53.480;6.158;2023-02-13T07:03:01;7.10;99.90
52869;DHT22;39100;53.480;6.158;2023-02-13T07:05:27;7.20;99.90
52869;DHT22;39100;53.480;6.158;2023-02-13T07:07:52;7.20;99.90
52869;DHT22;39100;53.480;6.158;2023-02-13T07:10:18;7.20;99.90
52869;DHT22;39100;53.480;6.158;2023-02-13T07:12:44;7.20;99.90
52869;DHT22;39100;53.480;6.158;2023-02-13T07:15:10;7.20;99.90
52869;DHT22;39100;53.480;6.158;2023-02-13T07:17:36;7.30;99.90
52869;DHT22;39100;53.480;6.158;2023-02-13T07:20:02;7.30;99.90
52869;DHT22;39100;53.480;6.158;2023-02-13T07:22:30;7.20;99.90
52869;DHT22;39100;53.480;6.158;2023-02-13T07:24:57;7.30;99.90
52869;DHT22;39100;53.480;6.158;2023-02-13T07:27:23;7.20;99.90
52869;DHT22;39100;53.480;6.158;2023-02-13T07:29:49;7.30;99.90
52869;DHT22;39100;53.480;6.158;2023-02-13T07:32:14;7.30;99.90
52869;DHT22;39100;53.480;6.158;2023-02-13T07:34:40;7.30;99.90
52869;DHT22;39100;53.480;6.158;2023-02-13T07:37:05;7.30;99.90
52869;DHT22;39100;53.480;6.158;2023-02-13T07:39:31;7.30;99.90
52869;DHT22;39100;53.480;6.158;2023-02-13T07:41:57;7.30;99.90
52869;DHT22;39100;53.480;6.158;2023-02-13T07:44:22;7.30;99.90
52869;DHT22;39100;53.480;6.158;2023-02-13T07:46:48;7.30;99.90
52869;DHT22;39100;53.480;6.158;2023-02-13T07:49:13;7.30;99.90
52869;DHT22;39100;53.480;6.158;2023-02-13T07:51:39;8.30;99.90
52869;DHT22;39100;53.480;6.158;2023-02-13T07:54:04;7.30;99.90
52869;DHT22;39100;53.480;6.158;2023-02-13T07:56:30;7.30;99.90
52869;DHT22;39100;53.480;6.158;2023-02-13T07:58:56;7.30;99.90
52869;DHT22;39100;53.480;6.158;2023-02-13T08:01:21;7.30;99.90
52869;DHT22;39100;53.480;6.158;2023-02-13T08:03:48;7.40;99.90
52869;DHT22;39100;53.480;6.158;2023-02-13T08:06:18;7.30;99.90
52869;DHT22;39100;53.480;6.158;2023-02-13T08:08:44;7.40;99.90
52869;DHT22;39100;53.480;6.158;2023-02-13T08:11:36;7.30;99.90
52869;DHT22;39100;53.480;6.158;2023-02-13T08:14:25;7.30;99.90
52869;DHT22;39100;53.480;6.158;2023-02-13T08:16:51;7.30;99.90
52869;DHT22;39100;53.480;6.158;2023-02-13T08:19:17;7.30;99.90
52869;DHT22;39100;53.480;6.158;2023-02-13T08:21:43;7.30;99.90
52869;DHT22;39100;53.480;6.158;2023-02-13T08:24:09;7.40;99.90
52869;DHT22;39100;53.480;6.158;2023-02-13T08:26:35;7.50;99.90
52869;DHT22;39100;53.480;6.158;2023-02-13T08:29:02;7.50;99.90
52869;DHT22;39100;53.480;6.158;2023-02-13T08:31:27;7.60;99.90
52869;DHT22;39100;53.480;6.158;2023-02-13T08:33:55;7.60;99.90
52869;DHT22;39100;53.480;6.158;2023-02-13T08:36:20;7.60;99.90
52869;DHT22;39100;53.480;6.158;2023-02-13T08:38:46;7.70;99.90
52869;DHT22;39100;53.480;6.158;2023-02-13T08:41:12;7.70;99.90
52869;DHT22;39100;53.480;6.158;2023-02-13T08:43:38;7.60;99.90
52869;DHT22;39100;53.480;6.158;2023-02-13T08:46:04;7.60;99.90
52869;DHT22;39100;53.480;6.158;2023-02-13T08:48:29;7.70;99.90
52869;DHT22;39100;53.480;6.158;2023-02-13T08:50:55;7.70;99.90
52869;DHT22;39100;53.480;6.158;2023-02-13T08:53:22;7.70;99.90
52869;DHT22;39100;53.480;6.158;2023-02-13T08:55:55;7.70;99.90
52869;DHT22;39100;53.480;6.158;2023-02-13T08:58:21;7.70;99.90
52869;DHT22;39100;53.480;6.158;2023-02-13T09:00:46;7.70;99.90
52869;DHT22;39100;53.480;6.158;2023-02-13T09:03:12;7.60;99.90
52869;DHT22;39100;53.480;6.158;2023-02-13T09:05:38;7.60;99.90
52869;DHT22;39100;53.480;6.158;2023-02-13T09:08:04;7.70;99.90
52869;DHT22;39100;53.480;6.158;2023-02-13T09:10:31;7.70;99.90
52869;DHT22;39100;53.480;6.158;2023-02-13T09:12:56;7.70;99.90
52869;DHT22;39100;53.480;6.158;2023-02-13T09:15:22;7.70;99.90
52869;DHT22;39100;53.480;6.158;2023-02-13T09:17:47;7.80;99.90
52869;DHT22;39100;53.480;6.158;2023-02-13T09:20:13;7.70;99.90
52869;DHT22;39100;53.480;6.158;2023-02-13T09:22:40;7.80;99.90
52869;DHT22;39100;53.480;6.158;2023-02-13T09:25:06;7.80;99.90
52869;DHT22;39100;53.480;6.158;2023-02-13T09:27:32;7.80;99.90
52869;DHT22;39100;53.480;6.158;2023-02-13T09:29:59;7.90;99.90
52869;DHT22;39100;53.480;6.158;2023-02-13T09:32:25;7.90;99.90
52869;DHT22;39100;53.480;6.158;2023-02-13T09:34:51;7.90;99.90
52869;DHT22;39100;53.480;6.158;2023-02-13T09:37:16;7.90;99.90
52869;DHT22;39100;53.480;6.158;2023-02-13T09:39:42;7.90;99.90
52869;DHT22;39100;53.480;6.158;2023-02-13T09:42:23;7.80;99.90
52869;DHT22;39100;53.480;6.158;2023-02-13T09:44:53;7.80;99.90
52869;DHT22;39100;53.480;6.158;2023-02-13T09:47:30;7.90;99.90
52869;DHT22;39100;53.480;6.158;2023-02-13T09:50:02;7.90;99.90
52869;DHT22;39100;53.480;6.158;2023-02-13T09:52:32;7.90;99.90
52869;DHT22;39100;53.480;6.158;2023-02-13T09:55:03;7.90;99.90
52869;DHT22;39100;53.480;6.158;2023-02-13T09:57:41;7.90;99.90
52869;DHT22;39100;53.480;6.158;2023-02-13T10:00:12;8.00;99.90
52869;DHT22;39100;53.480;6.158;2023-02-13T10:08:24;8.00;99.90
52869;DHT22;39100;53.480;6.158;2023-02-13T10:11:19;8.10;99.90
52869;DHT22;39100;53.480;6.158;2023-02-13T10:14:18;8.10;99.90
52869;DHT22;39100;53.480;6.158;2023-02-13T10:17:00;8.10;99.90
52869;DHT22;39100;53.480;6.158;2023-02-13T10:22:03;8.20;99.90
52869;DHT22;39100;53.480;6.158;2023-02-13T10:27:21;8.10;99.90
52869;DHT22;39100;53.480;6.158;2023-02-13T10:29:57;8.20;99.90
52869;DHT22;39100;53.480;6.158;2023-02-13T10:32:41;8.10;99.90
52869;DHT22;39100;53.480;6.158;2023-02-13T10:35:20;8.10;99.90
52869;DHT22;39100;53.480;6.158;2023-02-13T10:37:47;8.60;99.90
52869;DHT22;39100;53.480;6.158;2023-02-13T10:40:16;8.10;99.90
52869;DHT22;39100;53.480;6.158;2023-02-13T10:42:45;8.10;99.90
52869;DHT22;39100;53.480;6.158;2023-02-13T10:45:32;8.20;99.90
52869;DHT22;39100;53.480;6.158;2023-02-13T10:53:58;8.20;99.90
52869;DHT22;39100;53.480;6.158;2023-02-13T10:56:31;8.20;99.90
52869;DHT22;39100;53.480;6.158;2023-02-13T11:01:48;8.20;99.90
52869;DHT22;39100;53.480;6.158;2023-02-13T11:04:18;8.30;99.90
52869;DHT22;39100;53.480;6.158;2023-02-13T11:07:00;8.30;99.90
52869;DHT22;39100;53.480;6.158;2023-02-13T11:09:27;8.30;99.90
52869;DHT22;39100;53.480;6.158;2023-02-13T11:11:53;8.40;99.90
52869;DHT22;39100;53.480;6.158;2023-02-13T11:14:23;8.30;99.90
52869;DHT22;39100;53.480;6.158;2023-02-13T11:17:01;8.20;99.90
52869;DHT22;39100;53.480;6.158;2023-02-13T11:19:33;8.30;99.90
52869;DHT22;39100;53.480;6.158;2023-02-13T11:22:07;8.30;99.90
52869;DHT22;39100;53.480;6.158;2023-02-13T11:24:33;8.30;99.90
52869;DHT22;39100;53.480;6.158;2023-02-13T11:27:06;8.40;99.90
52869;DHT22;39100;53.480;6.158;2023-02-13T11:29:35;8.40;99.90
52869;DHT22;39100;53.480;6.158;2023-02-13T11:32:19;8.40;99.90
52869;DHT22;39100;53.480;6.158;2023-02-13T11:34:46;8.30;99.90
52869;DHT22;39100;53.480;6.158;2023-02-13T11:39:38;8.40;99.90
52869;DHT22;39100;53.480;6.158;2023-02-13T11:42:18;8.50;99.90
52869;DHT22;39100;53.480;6.158;2023-02-13T11:44:51;8.60;99.90
52869;DHT22;39100;53.480;6.158;2023-02-13T11:47:32;8.60;99.90
52869;DHT22;39100;53.480;6.158;2023-02-13T11:49:59;8.50;99.90
52869;DHT22;39100;53.480;6.158;2023-02-13T11:52:30;8.40;99.90
52869;DHT22;39100;53.480;6.158;2023-02-13T11:55:05;8.40;99.90
52869;DHT22;39100;53.480;6.158;2023-02-13T11:57:56;8.40;99.90
52869;DHT22;39100;53.480;6.158;2023-02-13T12:00:31;8.40;99.90
52869;DHT22;39100;53.480;6.158;2023-02-13T12:03:04;8.50;99.90
52869;DHT22;39100;53.480;6.158;2023-02-13T12:06:12;8.40;99.90
52869;DHT22;39100;53.480;6.158;2023-02-13T12:08:40;8.30;99.90
52869;DHT22;39100;53.480;6.158;2023-02-13T12:11:34;8.30;99.90
52869;DHT22;39100;53.480;6.158;2023-02-13T12:14:01;8.40;99.90
52869;DHT22;39100;53.480;6.158;2023-02-13T12:16:43;8.30;99.90
52869;DHT22;39100;53.480;6.158;2023-02-13T12:19:17;8.30;99.90
52869;DHT22;39100;53.480;6.158;2023-02-13T12:24:44;8.50;99.90
52869;DHT22;39100;53.480;6.158;2023-02-13T12:27:40;8.40;99.90
52869;DHT22;39100;53.480;6.158;2023-02-13T12:36:01;8.50;99.90
52869;DHT22;39100;53.480;6.158;2023-02-13T12:42:07;8.50;99.90
52869;DHT22;39100;53.480;6.158;2023-02-13T12:44:42;8.60;99.90
52869;DHT22;39100;53.480;6.158;2023-02-13T12:47:36;8.70;99.90
52869;DHT22;39100;53.480;6.158;2023-02-13T12:53:26;8.60;99.90
52869;DHT22;39100;53.480;6.158;2023-02-13T12:59:26;8.70;99.90
52869;DHT22;39100;53.480;6.158;2023-02-13T13:21:59;8.80;99.90
52869;DHT22;39100;53.480;6.158;2023-02-13T13:27:28;8.80;99.90
52869;DHT22;39100;53.480;6.158;2023-02-13T13:29:58;8.90;99.90
52869;DHT22;39100;53.480;6.158;2023-02-13T13:32:25;8.70;99.90
52869;DHT22;39100;53.480;6.158;2023-02-13T13:34:52;8.80;99.90
52869;DHT22;39100;53.480;6.158;2023-02-13T13:37:36;8.80;99.90
52869;DHT22;39100;53.480;6.158;2023-02-13T13:40:39;8.80;99.90
52869;DHT22;39100;53.480;6.158;2023-02-13T13:50:59;8.80;99.90
52869;DHT22;39100;53.480;6.158;2023-02-13T13:53:26;8.90;99.90
52869;DHT22;39100;53.480;6.158;2023-02-13T14:03:57;8.90;99.90
52869;DHT22;39100;53.480;6.158;2023-02-13T14:09:02;8.90;99.90
52869;DHT22;39100;53.480;6.158;2023-02-13T14:11:42;8.80;99.90
52869;DHT22;39100;53.480;6.158;2023-02-13T14:17:03;8.90;99.90
52869;DHT22;39100;53.480;6.158;2023-02-13T14:19:37;8.90;99.90
52869;DHT22;39100;53.480;6.158;2023-02-13T14:24:58;8.90;99.90
52869;DHT22;39100;53.480;6.158;2023-02-13T14:29:50;8.80;99.90
52869;DHT22;39100;53.480;6.158;2023-02-13T14:32:24;8.90;99.90
52869;DHT22;39100;53.480;6.158;2023-02-13T14:35:05;8.80;99.90
52869;DHT22;39100;53.480;6.158;2023-02-13T14:37:48;8.80;99.90
52869;DHT22;39100;53.480;6.158;2023-02-13T14:42:45;8.80;99.90
52869;DHT22;39100;53.480;6.158;2023-02-13T14:45:21;8.70;99.90
52869;DHT22;39100;53.480;6.158;2023-02-13T14:47:51;8.70;99.90
52869;DHT22;39100;53.480;6.158;2023-02-13T14:50:31;8.70;99.90
52869;DHT22;39100;53.480;6.158;2023-02-13T14:53:00;8.70;99.90
52869;DHT22;39100;53.480;6.158;2023-02-13T14:55:33;8.80;99.90
52869;DHT22;39100;53.480;6.158;2023-02-13T14:58:29;8.70;99.90
52869;DHT22;39100;53.480;6.158;2023-02-13T15:00:55;8.70;99.90
52869;DHT22;39100;53.480;6.158;2023-02-13T15:03:27;8.70;99.90
52869;DHT22;39100;53.480;6.158;2023-02-13T15:05:56;8.70;99.90
52869;DHT22;39100;53.480;6.158;2023-02-13T15:08:26;8.70;99.90
52869;DHT22;39100;53.480;6.158;2023-02-13T15:10:55;8.70;99.90
52869;DHT22;39100;53.480;6.158;2023-02-13T15:13:31;8.70;99.90
52869;DHT22;39100;53.480;6.158;2023-02-13T15:16:06;8.60;99.90
52869;DHT22;39100;53.480;6.158;2023-02-13T15:18:50;8.60;99.90
52869;DHT22;39100;53.480;6.158;2023-02-13T15:21:22;8.60;99.90
52869;DHT22;39100;53.480;6.158;2023-02-13T15:23:57;8.60;99.90
52869;DHT22;39100;53.480;6.158;2023-02-13T15:26:24;8.60;99.90
52869;DHT22;39100;53.480;6.158;2023-02-13T15:29:16;8.60;99.90
52869;DHT22;39100;53.480;6.158;2023-02-13T15:31:42;8.50;99.90
52869;DHT22;39100;53.480;6.158;2023-02-13T15:36:48;8.50;99.90
52869;DHT22;39100;53.480;6.158;2023-02-13T15:39:18;8.40;99.90
52869;DHT22;39100;53.480;6.158;2023-02-13T15:41:47;8.40;99.90
52869;DHT22;39100;53.480;6.158;2023-02-13T15:44:34;8.40;99.90
52869;DHT22;39100;53.480;6.158;2023-02-13T15:47:28;8.40;99.90
52869;DHT22;39100;53.480;6.158;2023-02-13T15:49:54;8.30;99.90
52869;DHT22;39100;53.480;6.158;2023-02-13T15:52:30;8.40;99.90
52869;DHT22;39100;53.480;6.158;2023-02-13T15:54:57;8.40;99.90
52869;DHT22;39100;53.480;6.158;2023-02-13T15:57:23;8.30;99.90
52869;DHT22;39100;53.480;6.158;2023-02-13T15:59:51;8.40;99.90
52869;DHT22;39100;53.480;6.158;2023-02-13T16:02:22;8.40;99.90
52869;DHT22;39100;53.480;6.158;2023-02-13T16:04:51;8.30;99.90
52869;DHT22;39100;53.480;6.158;2023-02-13T16:07:17;8.30;99.90
52869;DHT22;39100;53.480;6.158;2023-02-13T16:09:43;8.20;99.90
52869;DHT22;39100;53.480;6.158;2023-02-13T16:12:26;8.20;99.90
52869;DHT22;39100;53.480;6.158;2023-02-13T16:14:58;8.20;99.90
52869;DHT22;39100;53.480;6.158;2023-02-13T16:17:29;8.10;99.90
52869;DHT22;39100;53.480;6.158;2023-02-13T16:20:16;8.10;99.90
52869;DHT22;39100;53.480;6.158;2023-02-13T16:22:45;8.10;99.90
52869;DHT22;39100;53.480;6.158;2023-02-13T16:27:49;8.10;99.90
52869;DHT22;39100;53.480;6.158;2023-02-13T16:30:38;8.10;99.90
52869;DHT22;39100;53.480;6.158;2023-02-13T16:33:27;8.10;99.90
52869;DHT22;39100;53.480;6.158;2023-02-13T16:43:52;8.00;99.90
52869;DHT22;39100;53.480;6.158;2023-02-13T16:49:21;8.00;99.90
52869;DHT22;39100;53.480;6.158;2023-02-13T16:51:59;8.00;99.90
52869;DHT22;39100;53.480;6.158;2023-02-13T16:54:38;7.90;99.90
52869;DHT22;39100;53.480;6.158;2023-02-13T16:59:49;7.90;99.90
52869;DHT22;39100;53.480;6.158;2023-02-13T17:04:49;7.90;99.90
52869;DHT22;39100;53.480;6.158;2023-02-13T17:07:20;7.90;99.90
52869;DHT22;39100;53.480;6.158;2023-02-13T17:10:19;7.90;99.90
52869;DHT22;39100;53.480;6.158;2023-02-13T17:12:46;7.90;99.90
52869;DHT22;39100;53.480;6.158;2023-02-13T17:15:14;7.80;99.90
52869;DHT22;39100;53.480;6.158;2023-02-13T17:17:40;7.80;99.90
52869;DHT22;39100;53.480;6.158;2023-02-13T17:20:06;7.80;99.90
52869;DHT22;39100;53.480;6.158;2023-02-13T17:22:47;7.80;99.90
52869;DHT22;39100;53.480;6.158;2023-02-13T17:25:17;7.80;99.90
52869;DHT22;39100;53.480;6.158;2023-02-13T17:27:45;7.80;99.90
52869;DHT22;39100;53.480;6.158;2023-02-13T17:30:25;7.70;99.90
52869;DHT22;39100;53.480;6.158;2023-02-13T17:33:09;7.70;99.90
52869;DHT22;39100;53.480;6.158;2023-02-13T17:35:36;7.60;99.90
52869;DHT22;39100;53.480;6.158;2023-02-13T17:38:01;7.60;99.90
52869;DHT22;39100;53.480;6.158;2023-02-13T17:40:27;7.60;99.90
52869;DHT22;39100;53.480;6.158;2023-02-13T17:42:56;7.60;99.90
52869;DHT22;39100;53.480;6.158;2023-02-13T17:45:24;7.50;99.90
52869;DHT22;39100;53.480;6.158;2023-02-13T17:47:50;7.50;99.90
52869;DHT22;39100;53.480;6.158;2023-02-13T17:50:16;7.40;99.90
52869;DHT22;39100;53.480;6.158;2023-02-13T17:52:42;7.40;99.90
52869;DHT22;39100;53.480;6.158;2023-02-13T17:57:49;7.30;99.90
52869;DHT22;39100;53.480;6.158;2023-02-13T18:00:16;7.30;99.90
52869;DHT22;39100;53.480;6.158;2023-02-13T18:02:42;7.30;99.90
52869;DHT22;39100;53.480;6.158;2023-02-13T18:05:09;7.30;99.90
52869;DHT22;39100;53.480;6.158;2023-02-13T18:07:35;7.30;99.90
52869;DHT22;39100;53.480;6.158;2023-02-13T18:10:01;7.30;99.90
52869;DHT22;39100;53.480;6.158;2023-02-13T18:12:29;7.30;99.90
52869;DHT22;39100;53.480;6.158;2023-02-13T18:14:55;7.20;99.90
52869;DHT22;39100;53.480;6.158;2023-02-13T18:17:20;7.30;99.90
52869;DHT22;39100;53.480;6.158;2023-02-13T18:19:46;7.20;99.90
52869;DHT22;39100;53.480;6.158;2023-02-13T18:22:12;7.20;99.90
52869;DHT22;39100;53.480;6.158;2023-02-13T18:24:40;7.10;99.90
52869;DHT22;39100;53.480;6.158;2023-02-13T18:27:06;7.00;99.90
52869;DHT22;39100;53.480;6.158;2023-02-13T18:29:32;7.00;99.90
52869;DHT22;39100;53.480;6.158;2023-02-13T18:32:00;6.90;99.90
52869;DHT22;39100;53.480;6.158;2023-02-13T18:34:26;6.90;99.90
52869;DHT22;39100;53.480;6.158;2023-02-13T18:36:52;6.70;99.90